Time;durP1;ratioP1;P1;durP2;ratioP2;P2;SDS_P1;SDS_P2;PMS_P1;PMS_P2;Temp;Humidity;BMP_temperature;BMP_pressure;BME280_temperature;BME280_humidity;BME280_pressure;Samples;Min_cycle;Max_cycle;Signal;HPM_P1;HPM_P2
2023/12/01 04:17:23;;;;;;;14.05;6.32;;;;;;;-2.61;66.54;99229.81;4791535;29;20412;-77
2023/12/01 04:19:53;;;;;;;16.48;6.20;;;;;;;-2.50;66.37;99237.81;4775511;29;20519;-76
2023/12/01 04:22:22;;;;;;;15.30;6.47;;;;;;;-2.80;66.66;99190.97;4760590;29;20052;-77
2023/12/01 04:24:48;;;;;;;14.43;6.45;;;;;;;-2.87;66.50;99169.47;4780266;29;20149;-80
2023/12/01 04:27:29;;;;;;;14.32;6.63;;;;;;;-2.32;66.75;99253.75;4765464;29;20155;-80
2023/12/01 04:30:14;;;;;;;14.23;5.82;;;;;;;-2.21;66.31;99253.25;4784897;29;20505;-81
2023/12/01 04:32:41;;;;;;;16.15;6.90;;;;;;;-2.29;66.60;99238.56;4792344;29;20077;-85
2023/12/01 04:35:10;;;;;;;14.10;6.20;;;;;;;-2.51;66.33;99206.38;4777242;29;20065;-77
2023/12/01 04:37:43;;;;;;;15.30;6.53;;;;;;;-2.72;66.20;99164.06;4792084;29;20080;-78
2023/12/01 04:40:16;;;;;;;16.52;6.68;;;;;;;-2.70;66.91;99160.69;4787907;29;20051;-79
2023/12/01 04:42:44;;;;;;;14.90;6.93;;;;;;;-2.14;66.74;99256.06;4759279;29;20058;-81
2023/12/01 04:45:17;;;;;;;15.48;6.90;;;;;;;-2.16;66.83;99252.59;4791276;29;20279;-81
2023/12/01 04:47:45;;;;;;;16.55;7.30;;;;;;;-2.40;66.44;99214.38;4763431;29;20483;-79
2023/12/01 04:50:14;;;;;;;16.67;7.10;;;;;;;-2.51;66.45;99177.47;4770523;29;20586;-73
2023/12/01 04:53:01;;;;;;;12.70;6.47;;;;;;;-2.06;66.38;99250.31;4743532;30;20066;-72
2023/12/01 04:55:31;;;;;;;15.68;7.78;;;;;;;-2.31;66.42;99217.25;4772617;29;20148;-72
2023/12/01 04:58:00;;;;;;;17.38;7.15;;;;;;;-2.09;66.36;99246.00;4775391;29;20469;-74
2023/12/01 05:00:27;;;;;;;15.38;6.57;;;;;;;-2.80;66.25;99124.75;4776034;29;20074;-73
2023/12/01 05:03:04;;;;;;;17.45;6.80;;;;;;;-2.24;66.24;99209.81;4771576;29;20047;-73
2023/12/01 05:05:33;;;;;;;14.73;6.50;;;;;;;-2.24;66.51;99212.38;4770447;29;20044;-73
2023/12/01 05:08:01;;;;;;;12.70;7.45;;;;;;;-2.13;66.51;99255.25;4775172;29;20036;-74
2023/12/01 05:10:29;;;;;;;15.93;7.53;;;;;;;-2.48;66.96;99193.72;4775532;29;20044;-74
2023/12/01 05:12:59;;;;;;;14.18;7.20;;;;;;;-2.17;67.01;99243.22;4768074;29;20599;-73
2023/12/01 05:15:31;;;;;;;16.35;6.32;;;;;;;-2.29;66.75;99227.47;4787134;29;20043;-72
2023/12/01 05:18:15;;;;;;;15.80;6.47;;;;;;;-2.29;66.35;99213.06;4755664;29;20051;-73
2023/12/01 05:20:43;;;;;;;15.77;6.85;;;;;;;-2.39;66.27;99194.88;4756290;29;20823;-71
2023/12/01 05:23:09;;;;;;;11.77;5.78;;;;;;;-2.25;66.54;99219.13;4771999;29;20043;-72
2023/12/01 05:25:41;;;;;;;14.18;6.53;;;;;;;-2.09;66.90;99238.34;4770679;29;20054;-72
2023/12/01 05:28:08;;;;;;;15.43;6.90;;;;;;;-2.12;66.83;99236.59;4758592;29;20524;-73
2023/12/01 05:30:47;;;;;;;14.18;6.95;;;;;;;-2.09;66.68;99237.47;4755567;29;20047;-74
2023/12/01 05:33:22;;;;;;;14.43;6.80;;;;;;;-2.09;66.80;99228.16;4774784;29;20039;-74
2023/12/01 05:35:51;;;;;;;19.13;7.25;;;;;;;-2.08;66.22;99226.47;4750663;29;20507;-74
2023/12/01 05:38:17;;;;;;;15.10;6.40;;;;;;;-2.48;66.58;99147.88;4772752;29;20040;-75
2023/12/01 05:40:43;;;;;;;15.98;7.25;;;;;;;-1.98;66.56;99236.16;4747912;29;20043;-75
2023/12/01 05:43:16;;;;;;;14.35;5.88;;;;;;;-2.20;66.66;99199.75;4760651;29;20043;-73
2023/12/01 05:45:43;;;;;;;14.52;6.95;;;;;;;-1.99;66.59;99236.97;4772448;29;20053;-72
2023/12/01 05:48:09;;;;;;;13.52;5.97;;;;;;;-2.14;66.41;99222.91;4753821;29;20039;-73
2023/12/01 05:50:35;;;;;;;11.38;6.07;;;;;;;-2.07;66.30;99234.19;4772921;29;20213;-73
2023/12/01 05:53:03;;;;;;;14.30;6.10;;;;;;;-2.31;66.81;99194.31;4774928;30;20134;-75
2023/12/01 05:55:51;;;;;;;13.73;6.72;;;;;;;-2.08;66.35;99231.56;4766046;29;20314;-73
2023/12/01 05:58:18;;;;;;;12.63;5.75;;;;;;;-2.33;66.51;99197.63;4754249;29;20048;-74
2023/12/01 06:00:44;;;;;;;12.45;6.70;;;;;;;-2.58;66.73;99153.50;4789348;29;20043;-73
2023/12/01 06:03:11;;;;;;;11.55;5.80;;;;;;;-2.20;66.50;99221.81;4757999;29;20069;-74
2023/12/01 06:05:38;;;;;;;14.68;6.55;;;;;;;-2.14;66.23;99220.38;4785826;29;20042;-76
2023/12/01 06:08:08;;;;;;;15.95;6.45;;;;;;;-2.04;66.32;99233.41;4760631;30;20039;-78
2023/12/01 06:10:34;;;;;;;14.13;6.50;;;;;;;-2.30;66.13;99203.69;4774607;30;20043;-73
2023/12/01 06:13:01;;;;;;;15.10;6.28;;;;;;;-2.22;66.34;99208.19;4775716;29;20054;-74
2023/12/01 06:15:30;;;;;;;14.60;6.72;;;;;;;-2.01;67.00;99238.59;4773261;29;20075;-74
2023/12/01 06:17:58;;;;;;;13.07;6.60;;;;;;;-2.07;66.61;99230.75;4758800;29;20039;-74
2023/12/01 06:20:24;;;;;;;13.95;6.78;;;;;;;-2.00;66.60;99225.03;4787280;29;20576;-75
2023/12/01 06:22:59;;;;;;;15.98;6.93;;;;;;;-1.97;66.44;99230.25;4771479;29;20051;-73
2023/12/01 06:25:31;;;;;;;17.63;6.47;;;;;;;-2.02;66.50;99222.44;4745372;29;20047;-76
2023/12/01 06:28:04;;;;;;;13.93;6.47;;;;;;;-2.19;66.67;99180.22;4743613;29;20043;-76
2023/12/01 06:30:34;;;;;;;13.13;5.63;;;;;;;-2.47;66.34;99121.56;4760106;29;20109;-75
2023/12/01 06:33:02;;;;;;;16.73;6.30;;;;;;;-1.80;66.17;99233.34;4759298;30;20050;-75
2023/12/01 06:35:29;;;;;;;8.93;4.22;;;;;;;-2.30;66.54;99150.16;4772869;29;20406;-74
2023/12/01 06:37:57;;;;;;;16.17;6.13;;;;;;;-2.19;66.52;99168.34;4787654;29;20063;-74
2023/12/01 06:40:23;;;;;;;13.48;6.57;;;;;;;-1.75;66.45;99220.72;4768885;29;20058;-75
2023/12/01 06:42:54;;;;;;;13.50;6.63;;;;;;;-1.72;65.87;99231.88;4787474;29;20117;-75
2023/12/01 06:45:23;;;;;;;12.63;6.70;;;;;;;-1.82;66.36;99196.72;4772867;29;20668;-74
2023/12/01 06:47:50;;;;;;;11.20;5.70;;;;;;;-2.05;65.84;99167.91;4755700;29;20067;-73
2023/12/01 06:50:26;;;;;;;13.80;6.63;;;;;;;-1.73;65.84;99213.97;4773922;29;20043;-75
2023/12/01 06:52:59;;;;;;;11.35;5.85;;;;;;;-1.69;65.69;99228.56;4746457;30;20119;-74
2023/12/01 06:55:28;;;;;;;13.23;5.32;;;;;;;-1.92;66.35;99189.56;4770917;29;20546;-74
2023/12/01 06:57:57;;;;;;;12.52;6.07;;;;;;;-1.96;65.95;99175.88;4766646;29;20051;-79
2023/12/01 07:00:29;;;;;;;10.43;5.57;;;;;;;-1.92;65.88;99176.81;4784172;29;20039;-79
2023/12/01 07:02:59;;;;;;;14.98;6.20;;;;;;;-1.65;66.50;99209.97;4759259;30;20055;-76
2023/12/01 07:05:35;;;;;;;13.75;6.40;;;;;;;-1.68;66.31;99197.13;4767417;30;20044;-78
2023/12/01 07:08:11;;;;;;;12.13;5.50;;;;;;;-1.98;65.68;99124.78;4764580;29;20129;-77
2023/12/01 07:10:40;;;;;;;11.77;6.05;;;;;;;-1.76;65.72;99165.41;4772099;29;20053;-78
2023/12/01 07:13:07;;;;;;;13.95;6.70;;;;;;;-1.44;66.00;99214.88;4768464;30;20039;-77
2023/12/01 07:15:34;;;;;;;11.55;5.85;;;;;;;-1.55;65.60;99185.63;4788369;29;20481;-79
2023/12/01 07:18:06;;;;;;;15.77;6.32;;;;;;;-1.44;65.96;99188.50;4785822;29;21501;-75
2023/12/01 07:20:33;;;;;;;13.05;5.82;;;;;;;-1.36;65.89;99194.69;4757718;30;20103;-79
2023/12/01 07:23:03;;;;;;;11.60;5.97;;;;;;;-1.51;65.95;99167.00;4787343;30;20050;-79
2023/12/01 07:25:29;;;;;;;12.32;5.72;;;;;;;-1.36;65.50;99184.47;4771456;30;20046;-77
2023/12/01 07:27:59;;;;;;;12.80;6.20;;;;;;;-1.17;66.06;99208.84;4788913;30;20139;-78
2023/12/01 07:30:29;;;;;;;12.82;5.75;;;;;;;-1.31;65.43;99165.03;4798979;29;20058;-80
2023/12/01 07:32:59;;;;;;;13.52;6.13;;;;;;;-1.23;65.59;99161.03;4782192;29;20789;-76
2023/12/01 07:35:47;;;;;;;14.90;5.80;;;;;;;-1.14;65.72;99159.53;4798082;29;20048;-81
2023/12/01 07:38:15;;;;;;;12.80;6.07;;;;;;;-1.12;65.32;99176.66;4780887;29;20048;-76
2023/12/01 07:41:19;;;;;;;11.95;6.53;;;;;;;-1.11;65.65;99180.06;4791287;29;20043;-78
2023/12/01 07:43:52;;;;;;;12.65;5.90;;;;;;;-1.32;64.78;99150.53;4799761;29;20031;-78
2023/12/01 07:46:27;;;;;;;16.77;6.88;;;;;;;-1.10;65.39;99195.41;4796755;29;20054;-77
2023/12/01 07:49:02;;;;;;;14.48;6.63;;;;;;;-0.99;65.75;99203.38;4781632;30;20035;-78
2023/12/01 07:51:38;;;;;;;12.43;6.07;;;;;;;-1.29;65.26;99134.44;4750190;29;20046;-75
2023/12/01 07:54:07;;;;;;;13.82;6.63;;;;;;;-1.26;65.60;99150.72;4799967;29;20039;-78
2023/12/01 07:56:37;;;;;;;11.43;6.20;;;;;;;-1.06;64.93;99171.69;4793224;29;20059;-82
2023/12/01 07:59:06;;;;;;;13.40;6.47;;;;;;;-1.00;65.83;99181.25;4772902;30;20048;-80
2023/12/01 08:01:33;;;;;;;15.95;6.78;;;;;;;-1.09;65.73;99181.81;4800081;29;20051;-80
2023/12/01 08:04:00;;;;;;;18.27;7.18;;;;;;;-1.15;65.54;99160.38;4784320;30;20039;-81
2023/12/01 08:06:29;;;;;;;15.40;6.75;;;;;;;-1.19;64.85;99158.53;4772775;30;20130;-79
2023/12/01 08:09:01;;;;;;;13.52;7.32;;;;;;;-1.04;65.93;99170.88;4775765;30;20135;-77
2023/12/01 08:11:30;;;;;;;15.63;6.85;;;;;;;-1.21;65.11;99144.03;4773235;30;20073;-74
2023/12/01 08:13:56;;;;;;;15.10;7.25;;;;;;;-0.99;65.74;99167.63;4776738;29;20030;-76
2023/12/01 08:16:26;;;;;;;14.93;7.18;;;;;;;-1.16;65.69;99136.53;4790135;29;20051;-77
2023/12/01 08:18:52;;;;;;;13.93;7.07;;;;;;;-1.09;65.42;99155.44;4777003;30;20035;-78
2023/12/01 08:21:19;;;;;;;15.63;8.13;;;;;;;-1.07;65.25;99158.91;4753412;30;20112;-77
2023/12/01 08:24:08;;;;;;;16.55;8.38;;;;;;;-1.87;65.06;99005.25;4773168;30;20034;-77
2023/12/01 08:26:37;;;;;;;20.85;9.48;;;;;;;-1.35;65.43;99099.41;4760534;30;20051;-80
2023/12/01 08:29:06;;;;;;;23.05;10.55;;;;;;;-0.91;65.75;99142.31;4770746;30;20429;-80
2023/12/01 08:31:33;;;;;;;19.48;8.80;;;;;;;-0.80;65.33;99137.50;4773275;30;20048;-79
2023/12/01 08:34:01;;;;;;;20.00;9.13;;;;;;;-0.84;65.03;99118.63;4786950;30;20055;-79
2023/12/01 08:36:30;;;;;;;15.93;8.27;;;;;;;-0.61;65.29;99141.38;4789580;30;20148;-80
2023/12/01 08:38:56;;;;;;;14.52;7.80;;;;;;;-0.78;65.10;99110.28;4783916;30;20383;-75
2023/12/01 08:41:22;;;;;;;18.17;8.63;;;;;;;-0.77;65.57;99123.09;4791411;30;20542;-78
2023/12/01 08:43:48;;;;;;;19.88;8.60;;;;;;;-0.64;65.44;99133.63;4789464;30;20105;-79
2023/12/01 08:46:16;;;;;;;17.55;8.43;;;;;;;-0.65;65.53;99112.31;4801068;30;20564;-79
2023/12/01 08:48:44;;;;;;;17.90;8.85;;;;;;;-1.03;65.50;99053.44;4775407;30;20134;-80
2023/12/01 08:51:17;;;;;;;19.50;8.63;;;;;;;-0.65;65.56;99117.44;4796877;29;20058;-78
2023/12/01 08:53:46;;;;;;;18.33;8.88;;;;;;;-0.52;65.66;99116.06;4778201;30;20071;-82
2023/12/01 08:56:14;;;;;;;20.65;9.65;;;;;;;-0.46;65.68;99112.78;4789579;30;20027;-77
2023/12/01 08:58:46;;;;;;;19.17;8.95;;;;;;;-0.38;65.29;99126.63;4802153;29;20051;-74
2023/12/01 09:01:17;;;;;;;21.43;9.97;;;;;;;-0.62;65.60;99085.97;4784413;30;20130;-77
2023/12/01 09:03:44;;;;;;;24.65;12.15;;;;;;;-0.58;65.75;99099.69;4756401;30;20379;-73
2023/12/01 09:06:10;;;;;;;26.73;12.18;;;;;;;-0.49;65.69;99110.13;4803124;29;20053;-77
2023/12/01 09:08:41;;;;;;;20.95;9.27;;;;;;;-0.71;65.29;99076.38;4792435;29;20111;-78
2023/12/01 09:11:16;;;;;;;19.90;10.05;;;;;;;-0.54;65.45;99088.69;4797127;29;20588;-78
2023/12/01 09:13:48;;;;;;;22.63;10.75;;;;;;;-0.48;65.98;99110.19;4768412;30;20059;-70
2023/12/01 09:16:20;;;;;;;22.25;11.27;;;;;;;-0.44;66.26;99116.22;4760254;30;20075;-78
2023/12/01 09:18:46;;;;;;;30.33;12.07;;;;;;;-0.65;65.44;99076.53;4795566;29;20067;-76
2023/12/01 09:21:24;;;;;;;30.80;14.20;;;;;;;-0.39;65.78;99111.22;4785633;30;20055;-73
2023/12/01 09:23:50;;;;;;;27.73;12.00;;;;;;;-0.65;65.65;99047.56;4777627;29;20120;-75
2023/12/01 09:26:24;;;;;;;22.23;11.73;;;;;;;-0.24;65.59;99088.59;4783456;29;20039;-76
2023/12/01 09:28:53;;;;;;;25.98;12.93;;;;;;;-0.20;66.10;99084.41;4783438;30;20053;-72
2023/12/01 09:31:19;;;;;;;24.83;12.23;;;;;;;-0.21;66.13;99067.34;4768642;29;20051;-73
2023/12/01 09:33:45;;;;;;;24.27;10.80;;;;;;;0.01;66.03;99104.47;4784384;30;20724;-76
2023/12/01 09:36:11;;;;;;;21.83;11.95;;;;;;;-0.28;65.65;99061.22;4782917;29;20176;-75
2023/12/01 09:38:38;;;;;;;17.27;8.07;;;;;;;-0.18;66.26;99087.88;4799301;29;20050;-77
2023/12/01 09:41:04;;;;;;;20.42;8.77;;;;;;;-0.33;66.23;99057.69;4768970;29;20051;-77
2023/12/01 09:43:30;;;;;;;17.63;8.15;;;;;;;-0.36;66.22;99068.72;4782994;29;20039;-74
2023/12/01 09:45:56;;;;;;;17.33;8.65;;;;;;;-0.28;66.70;99078.25;4770272;29;20047;-73
2023/12/01 09:48:34;;;;;;;16.23;8.13;;;;;;;-0.22;66.74;99075.84;4765681;29;20175;-74
2023/12/01 09:51:05;;;;;;;16.85;8.07;;;;;;;-0.33;66.66;99066.22;4794838;29;20102;-70
2023/12/01 09:53:32;;;;;;;15.05;7.97;;;;;;;-0.28;67.15;99070.56;4781633;30;20067;-73
2023/12/01 09:56:03;;;;;;;15.57;7.60;;;;;;;-0.84;66.91;98997.72;4766710;29;20042;-72
2023/12/01 09:58:41;;;;;;;16.27;8.27;;;;;;;-0.92;66.75;99000.09;4777023;30;20190;-73
2023/12/01 10:01:14;;;;;;;17.92;8.88;;;;;;;-0.78;66.78;99034.50;4779217;29;20055;-74
2023/12/01 10:03:40;;;;;;;17.27;7.88;;;;;;;-0.79;67.23;99019.97;4794436;29;20048;-76
2023/12/01 10:06:12;;;;;;;15.82;7.88;;;;;;;-0.49;66.78;99051.34;4794894;29;20050;-69
2023/12/01 10:08:38;;;;;;;19.23;8.20;;;;;;;-0.53;67.14;99041.88;4785541;29;20039;-77
2023/12/01 10:11:22;;;;;;;16.42;7.93;;;;;;;-0.47;67.09;99042.03;4785302;30;20081;-70
2023/12/01 10:16:50;;;;;;;16.70;8.18;;;;;;;-1.03;67.36;98989.59;4800724;29;20178;-75
2023/12/01 10:19:16;;;;;;;18.43;9.27;;;;;;;-0.93;67.63;99008.56;4776069;29;20043;-76
2023/12/01 10:21:45;;;;;;;17.13;8.57;;;;;;;-0.92;67.82;99025.63;4791208;29;20049;-73
2023/12/01 10:24:37;;;;;;;16.13;7.53;;;;;;;-0.91;67.71;99028.22;4757344;29;20050;-74
2023/12/01 10:27:21;;;;;;;17.38;8.23;;;;;;;-1.02;67.76;99009.22;4742620;30;20056;-76
2023/12/01 10:29:47;;;;;;;16.27;8.27;;;;;;;-1.22;67.58;98971.28;4779106;30;20047;-75
2023/12/01 10:32:18;;;;;;;18.30;8.05;;;;;;;-0.98;67.89;99008.44;4783762;29;20534;-73
2023/12/01 10:34:49;;;;;;;16.92;7.85;;;;;;;-0.72;67.99;99015.03;4767629;29;20056;-74
2023/12/01 10:37:29;;;;;;;16.30;7.40;;;;;;;-1.01;67.72;98964.97;4766515;30;20047;-75
2023/12/01 10:39:56;;;;;;;14.38;7.15;;;;;;;-0.78;67.40;99001.28;4774958;30;20133;-76
2023/12/01 10:42:25;;;;;;;16.35;8.02;;;;;;;-1.23;68.06;98905.72;4757639;29;20044;-75
2023/12/01 10:44:52;;;;;;;16.90;8.40;;;;;;;-0.70;67.60;99000.59;4770136;30;20078;-77
2023/12/01 10:47:26;;;;;;;18.42;7.50;;;;;;;-1.18;67.59;98915.16;4778776;29;20620;-73
2023/12/01 10:49:59;;;;;;;18.52;8.35;;;;;;;-0.62;67.84;99004.19;4784528;30;20043;-73
2023/12/01 10:52:40;;;;;;;16.38;7.72;;;;;;;-0.85;67.38;98968.72;4793390;29;20051;-78
2023/12/01 10:55:28;;;;;;;17.75;8.40;;;;;;;-1.22;67.41;98927.88;4779007;30;20104;-72
2023/12/01 10:57:59;;;;;;;16.63;8.32;;;;;;;-0.86;67.64;98990.00;4772859;30;20432;-74
2023/12/01 11:00:32;;;;;;;16.73;7.40;;;;;;;-1.23;67.98;98915.94;4768585;29;20100;-78
2023/12/01 11:03:03;;;;;;;20.30;8.45;;;;;;;-1.53;68.05;98868.38;4782375;30;20061;-74
2023/12/01 11:05:32;;;;;;;18.65;9.05;;;;;;;-1.28;68.16;98912.38;4781280;30;20047;-71
2023/12/01 11:08:20;;;;;;;16.60;8.52;;;;;;;-0.83;67.95;98961.13;4780402;29;21597;-65
2023/12/01 11:11:20;;;;;;;16.77;7.88;;;;;;;-0.77;67.53;98971.47;4761816;30;20039;-65
2023/12/01 11:13:52;;;;;;;20.35;10.45;;;;;;;-0.77;67.48;98971.47;4788099;29;20055;-69
2023/12/01 11:16:18;;;;;;;16.00;8.57;;;;;;;-0.89;67.52;98968.63;4790155;29;20050;-69
2023/12/01 11:18:48;;;;;;;19.83;9.50;;;;;;;-0.98;67.88;98957.34;4802982;29;20076;-70
2023/12/01 11:21:17;;;;;;;21.02;10.25;;;;;;;-1.00;67.99;98940.28;4761776;30;20052;-72
2023/12/01 11:23:43;;;;;;;19.40;9.57;;;;;;;-1.07;67.42;98944.38;4757377;30;20043;-71
2023/12/01 11:26:11;;;;;;;19.10;9.18;;;;;;;-1.22;67.67;98910.00;4772859;30;20051;-73
2023/12/01 11:28:46;;;;;;;19.75;9.00;;;;;;;-1.01;67.98;98951.31;4773282;30;20399;-75
2023/12/01 11:31:19;;;;;;;21.60;10.18;;;;;;;-1.15;67.98;98936.53;4773439;30;20047;-71
2023/12/01 11:33:52;;;;;;;20.20;9.30;;;;;;;-1.03;67.57;98953.84;4779175;30;20120;-71
2023/12/01 11:36:24;;;;;;;20.35;9.07;;;;;;;-1.03;67.68;98948.75;4772208;30;20530;-73
2023/12/01 11:41:43;;;;;;;21.15;9.88;;;;;;;-1.13;67.74;98939.13;4780178;29;20424;-73
2023/12/01 11:44:15;;;;;;;20.85;9.93;;;;;;;-1.05;67.64;98942.72;4797359;29;20043;-72
2023/12/01 11:46:41;;;;;;;22.83;9.45;;;;;;;-1.14;67.74;98922.06;4772328;30;20507;-71
2023/12/01 11:49:09;;;;;;;21.58;9.55;;;;;;;-1.08;67.72;98922.22;4773804;29;20067;-74
2023/12/01 11:51:35;;;;;;;21.98;10.07;;;;;;;-1.10;68.13;98924.72;4781777;29;20513;-72
2023/12/01 11:54:02;;;;;;;21.20;9.55;;;;;;;-1.16;68.35;98921.16;4787172;30;20047;-72
2023/12/01 11:56:29;;;;;;;20.83;8.30;;;;;;;-1.22;67.74;98926.97;4757724;30;20467;-74
2023/12/01 11:58:56;;;;;;;22.38;9.73;;;;;;;-1.21;68.40;98921.91;4788818;30;20074;-74
2023/12/01 12:01:24;;;;;;;24.58;9.88;;;;;;;-1.37;67.82;98901.94;4788933;30;20055;-75
2023/12/01 12:03:55;;;;;;;24.80;9.77;;;;;;;-1.32;67.90;98910.59;4756868;30;20044;-75
2023/12/01 12:06:23;;;;;;;23.05;10.38;;;;;;;-1.40;68.31;98910.41;4748541;30;20492;-72
2023/12/01 12:08:52;;;;;;;18.52;9.23;;;;;;;-1.28;68.58;98914.94;4770196;30;20138;-72
2023/12/01 12:11:19;;;;;;;22.23;9.52;;;;;;;-1.54;68.64;98861.56;4771759;30;20527;-72
2023/12/01 12:13:53;;;;;;;21.05;10.23;;;;;;;-1.27;68.05;98920.91;4769341;30;20055;-72
2023/12/01 12:16:20;;;;;;;21.88;9.15;;;;;;;-1.38;68.40;98897.66;4773915;30;20170;-73
2023/12/01 12:18:50;;;;;;;22.52;11.00;;;;;;;-1.40;68.40;98902.75;4771148;30;20138;-71
2023/12/01 12:21:16;;;;;;;20.17;8.55;;;;;;;-1.42;68.63;98888.19;4768254;30;20514;-72
2023/12/01 12:23:42;;;;;;;21.30;9.70;;;;;;;-1.36;68.56;98896.00;4772110;30;20059;-72
2023/12/01 12:26:16;;;;;;;24.05;9.40;;;;;;;-1.23;68.20;98907.38;4788737;30;20047;-72
2023/12/01 12:28:47;;;;;;;21.13;9.90;;;;;;;-1.22;68.12;98899.78;4793816;29;20058;-72
2023/12/01 12:31:14;;;;;;;24.92;10.93;;;;;;;-1.36;67.73;98883.25;4776919;30;20461;-73
2023/12/01 12:33:40;;;;;;;21.00;9.27;;;;;;;-1.45;68.38;98901.75;4772815;30;20051;-76
2023/12/01 12:36:07;;;;;;;20.80;9.70;;;;;;;-1.43;68.00;98892.44;4772996;30;20051;-79
2023/12/01 12:38:33;;;;;;;24.40;11.68;;;;;;;-1.44;68.60;98903.47;4790013;29;20093;-77
2023/12/01 12:41:00;;;;;;;24.83;11.00;;;;;;;-1.71;67.84;98878.13;4794011;29;20051;-77
2023/12/01 12:43:27;;;;;;;21.88;10.00;;;;;;;-1.79;68.46;98857.53;4778176;29;20055;-76
2023/12/01 12:45:54;;;;;;;20.15;8.93;;;;;;;-1.76;68.89;98849.94;4763832;30;20204;-74
2023/12/01 12:48:26;;;;;;;26.73;10.90;;;;;;;-1.51;68.18;98873.53;4787253;29;20066;-73
2023/12/01 12:50:52;;;;;;;;;;;;;;;-1.62;68.00;98868.16;4777504;29;20051;-75
2023/12/01 12:53:18;;;;;;;25.85;11.43;;;;;;;-1.78;68.70;98856.72;4772108;30;19921;-74
2023/12/01 12:55:45;;;;;;;26.23;10.80;;;;;;;-1.92;68.65;98837.63;4756891;30;20100;-75
2023/12/01 12:58:11;;;;;;;20.38;9.15;;;;;;;-1.97;68.81;98829.84;4772257;30;20070;-74
2023/12/01 13:00:37;;;;;;;25.15;10.52;;;;;;;-2.10;68.46;98820.19;4772717;30;20515;-74
2023/12/01 13:03:03;;;;;;;23.63;9.48;;;;;;;-1.92;68.27;98848.69;4796705;29;20123;-75
2023/12/01 13:05:30;;;;;;;27.05;11.43;;;;;;;-1.98;68.53;98849.38;4757441;29;20084;-75
2023/12/01 13:07:56;;;;;;;26.42;11.65;;;;;;;-1.99;68.82;98841.69;4756953;30;20051;-73
2023/12/01 13:10:22;;;;;;;27.98;12.80;;;;;;;-2.12;68.92;98836.28;4760344;30;20462;-76
2023/12/01 13:12:48;;;;;;;21.15;9.93;;;;;;;-2.16;68.63;98824.28;4766715;29;20051;-74
2023/12/01 13:15:13;;;;;;;25.50;12.00;;;;;;;-2.27;68.61;98815.47;4765868;30;20159;-74
2023/12/01 13:17:39;;;;;;;25.50;11.48;;;;;;;-2.32;69.22;98804.31;4783265;29;20059;-75
2023/12/01 13:20:07;;;;;;;27.30;12.10;;;;;;;-1.97;68.93;98832.41;4791699;30;20537;-74
2023/12/01 13:22:33;;;;;;;26.42;11.73;;;;;;;-2.06;69.12;98810.09;4774460;30;20066;-72
2023/12/01 13:24:59;;;;;;;26.52;11.95;;;;;;;-2.09;68.91;98807.47;4774246;30;20048;-74
2023/12/01 13:27:24;;;;;;;26.33;12.15;;;;;;;-2.10;68.77;98815.06;4791800;30;20081;-77
2023/12/01 13:29:50;;;;;;;25.13;10.73;;;;;;;-2.00;68.76;98822.13;4760428;30;20058;-74
2023/12/01 13:32:16;;;;;;;24.80;11.07;;;;;;;-2.19;68.90;98801.25;4759947;30;20054;-72
2023/12/01 13:34:42;;;;;;;29.55;11.27;;;;;;;-2.17;68.97;98814.91;4789472;29;20587;-75
2023/12/01 13:37:08;;;;;;;23.27;11.52;;;;;;;-2.42;68.79;98775.13;4780689;30;20373;-77
2023/12/01 13:39:35;;;;;;;26.23;12.45;;;;;;;-2.27;69.30;98813.81;4781478;30;20043;-74
2023/12/01 13:42:01;;;;;;;34.17;13.55;;;;;;;-2.33;69.09;98780.50;4764651;30;20057;-74
2023/12/01 13:44:27;;;;;;;33.58;13.90;;;;;;;-2.13;69.20;98798.88;4776613;29;20047;-73
2023/12/01 13:46:53;;;;;;;29.95;13.55;;;;;;;-2.03;69.27;98787.22;4775716;30;20055;-70
2023/12/01 13:49:19;;;;;;;29.90;13.32;;;;;;;-2.04;68.69;98797.38;4776430;30;20126;-71
2023/12/01 13:51:50;;;;;;;32.15;14.68;;;;;;;-2.13;69.29;98803.97;4776973;30;20063;-74
2023/12/01 13:54:19;;;;;;;30.23;13.13;;;;;;;-2.24;69.22;98800.25;4776338;30;20059;-72
2023/12/01 13:56:45;;;;;;;26.90;13.10;;;;;;;-2.30;69.21;98795.88;4781329;30;20062;-74
2023/12/01 13:59:11;;;;;;;30.27;13.23;;;;;;;-2.38;69.32;98781.19;4775668;30;20081;-72
2023/12/01 14:01:39;;;;;;;27.95;12.25;;;;;;;-2.45;69.87;98775.94;4766429;30;20071;-75
2023/12/01 14:07:47;;;;;;;31.92;13.50;;;;;;;-2.35;69.63;98786.38;4807080;29;20051;-74
2023/12/01 14:13:34;;;;;;;30.00;13.18;;;;;;;-2.46;70.14;98735.97;4806412;29;20046;-76
2023/12/01 14:19:24;;;;;;;30.48;13.20;;;;;;;-2.28;69.61;98758.53;4777690;30;20053;-77
2023/12/01 14:25:33;;;;;;;30.70;13.52;;;;;;;-2.37;69.64;98760.84;4793009;29;20043;-76
2023/12/01 14:28:18;;;;;;;27.67;12.63;;;;;;;-2.40;70.09;98762.47;4767582;30;20203;-74
2023/12/01 14:31:03;;;;;;;28.73;11.95;;;;;;;-2.57;70.27;98742.50;4776362;30;20077;-77
2023/12/01 14:49:05;;;;;;;37.13;15.50;;;;;;;-1.98;71.09;98724.44;4778736;30;20443;-74
2023/12/01 14:52:08;;;;;;;37.53;16.35;;;;;;;-1.91;70.87;98720.38;4804481;29;20054;-71
2023/12/01 14:55:11;;;;;;;37.88;17.13;;;;;;;-2.02;70.65;98721.78;4796169;29;20070;-73
2023/12/01 15:03:25;;;;;;;36.72;16.00;;;;;;;-1.87;71.21;98699.19;4778326;29;20043;-70
2023/12/01 15:05:51;;;;;;;34.65;15.48;;;;;;;-2.02;70.33;98684.41;4791530;30;20055;-73
2023/12/01 15:11:01;;;;;;;32.05;14.57;;;;;;;-2.27;70.37;98658.31;4799641;29;20051;-75
2023/12/01 15:13:27;;;;;;;29.20;13.55;;;;;;;-2.45;69.88;98656.16;4809522;29;20046;-74
2023/12/01 15:19:37;;;;;;;35.00;14.35;;;;;;;-2.17;70.50;98691.66;4791259;30;20043;-74
2023/12/01 15:22:03;;;;;;;29.38;13.73;;;;;;;-2.25;69.85;98688.94;4759978;30;20082;-72
2023/12/01 15:24:29;;;;;;;32.35;14.35;;;;;;;-2.30;70.08;98687.94;4785168;30;20407;-75
2023/12/01 15:26:57;;;;;;;30.90;13.27;;;;;;;-2.32;70.57;98672.63;4776502;30;20047;-71
2023/12/01 15:32:26;;;;;;;32.65;14.88;;;;;;;-2.10;70.98;98657.00;4769961;30;20062;-75
2023/12/01 15:35:11;;;;;;;30.83;14.40;;;;;;;-2.08;70.38;98658.75;4793019;30;20043;-76
2023/12/01 15:37:40;;;;;;;35.05;16.00;;;;;;;-2.20;70.07;98653.34;4777173;30;20089;-76
2023/12/01 15:40:07;;;;;;;33.80;15.40;;;;;;;-2.23;70.52;98649.06;4790517;29;20078;-73
2023/12/01 15:42:33;;;;;;;29.75;14.18;;;;;;;-2.33;69.92;98642.03;4781612;29;20051;-77
2023/12/01 15:44:59;;;;;;;27.92;12.90;;;;;;;-2.16;70.46;98657.69;4769267;30;20074;-75
2023/12/01 15:47:25;;;;;;;32.47;13.00;;;;;;;-2.57;69.93;98632.94;4771846;30;20130;-77
2023/12/01 15:49:51;;;;;;;31.40;13.45;;;;;;;-3.10;70.58;98555.22;4760587;30;20073;-75
2023/12/01 15:52:17;;;;;;;26.48;13.10;;;;;;;-2.84;71.15;98577.94;4777980;29;20048;-74
2023/12/01 15:54:44;;;;;;;27.67;13.05;;;;;;;-2.42;70.47;98647.72;4751332;30;20051;-75
2023/12/01 15:57:09;;;;;;;37.30;15.30;;;;;;;-2.88;70.99;98577.00;4761292;30;20051;-75
2023/12/01 15:59:35;;;;;;;34.33;14.85;;;;;;;-2.42;71.74;98645.19;4761228;30;20051;-75
2023/12/01 16:02:01;;;;;;;31.38;14.52;;;;;;;-2.62;71.51;98570.81;4778060;30;20043;-74
2023/12/01 16:04:31;;;;;;;32.00;13.10;;;;;;;-2.29;70.95;98616.63;4767975;30;20036;-75
2023/12/01 16:06:57;;;;;;;28.80;12.57;;;;;;;-2.20;71.45;98617.66;4761736;29;20050;-75
2023/12/01 16:09:23;;;;;;;25.25;12.80;;;;;;;-2.13;71.75;98615.31;4786900;29;20043;-77
2023/12/01 16:11:50;;;;;;;27.67;12.57;;;;;;;-2.04;71.03;98634.19;4758974;29;20051;-78
2023/12/01 16:14:16;;;;;;;25.67;12.85;;;;;;;-2.07;71.75;98588.22;4759853;30;20048;-74
2023/12/01 16:16:42;;;;;;;28.40;12.70;;;;;;;-2.29;71.32;98546.94;4760974;29;20397;-75
2023/12/01 16:19:08;;;;;;;31.27;12.88;;;;;;;-2.14;70.65;98616.16;4755747;30;20065;-74
2023/12/01 16:21:34;;;;;;;28.75;11.55;;;;;;;-2.27;70.71;98589.50;4772354;30;20048;-76
2023/12/01 16:24:01;;;;;;;27.40;11.95;;;;;;;-2.31;70.59;98595.34;4758198;30;20051;-75
2023/12/01 16:26:26;;;;;;;26.77;12.35;;;;;;;-2.24;70.51;98621.84;4754305;30;20054;-76
2023/12/01 16:28:52;;;;;;;30.92;12.75;;;;;;;-2.48;70.49;98589.00;4779147;30;20130;-76
2023/12/01 16:31:18;;;;;;;28.30;12.52;;;;;;;-2.51;70.82;98588.91;4746283;30;20538;-75
2023/12/01 16:33:44;;;;;;;28.65;12.45;;;;;;;-2.33;71.30;98603.81;4769308;30;20134;-74
2023/12/01 16:36:10;;;;;;;30.50;12.90;;;;;;;-2.17;71.54;98617.75;4754187;30;20051;-74
2023/12/01 16:38:36;;;;;;;26.95;11.18;;;;;;;-2.46;70.87;98565.28;4769752;30;20504;-76
2023/12/01 16:41:02;;;;;;;23.13;10.77;;;;;;;-2.47;70.71;98588.19;4771000;30;20073;-77